sensor_id;sensor_type;location;lat;lon;timestamp;P1;durP1;ratioP1;P2;durP2;ratioP2
30420;SDS011;17218;54.070;10.012;2022-09-12T00:00:21;6.75;;;2.53;;
30420;SDS011;17218;54.070;10.012;2022-09-12T00:02:50;2.58;;;2.38;;
30420;SDS011;17218;54.070;10.012;2022-09-12T00:05:17;3.40;;;2.63;;
30420;SDS011;17218;54.070;10.012;2022-09-12T00:07:44;2.97;;;2.25;;
30420;SDS011;17218;54.070;10.012;2022-09-12T00:10:12;2.45;;;2.25;;
30420;SDS011;17218;54.070;10.012;2022-09-12T00:12:38;3.53;;;2.65;;
30420;SDS011;17218;54.070;10.012;2022-09-12T00:15:05;2.55;;;2.20;;
30420;SDS011;17218;54.070;10.012;2022-09-12T00:17:33;2.67;;;2.45;;
30420;SDS011;17218;54.070;10.012;2022-09-12T00:20:00;3.65;;;2.40;;
30420;SDS011;17218;54.070;10.012;2022-09-12T00:22:27;2.65;;;2.45;;
30420;SDS011;17218;54.070;10.012;2022-09-12T00:24:53;3.78;;;2.35;;
30420;SDS011;17218;54.070;10.012;2022-09-12T00:27:21;2.10;;;1.95;;
30420;SDS011;17218;54.070;10.012;2022-09-12T00:29:47;2.42;;;2.20;;
30420;SDS011;17218;54.070;10.012;2022-09-12T00:32:14;2.00;;;1.80;;
30420;SDS011;17218;54.070;10.012;2022-09-12T00:34:40;2.67;;;2.05;;
30420;SDS011;17218;54.070;10.012;2022-09-12T00:37:07;2.90;;;2.00;;
30420;SDS011;17218;54.070;10.012;2022-09-12T00:39:33;1.67;;;1.52;;
30420;SDS011;17218;54.070;10.012;2022-09-12T00:42:00;2.10;;;1.90;;
30420;SDS011;17218;54.070;10.012;2022-09-12T00:44:42;2.70;;;2.00;;
30420;SDS011;17218;54.070;10.012;2022-09-12T00:47:15;2.90;;;1.80;;
30420;SDS011;17218;54.070;10.012;2022-09-12T00:49:47;2.05;;;1.95;;
30420;SDS011;17218;54.070;10.012;2022-09-12T00:52:19;3.83;;;1.90;;
30420;SDS011;17218;54.070;10.012;2022-09-12T00:54:52;2.33;;;1.92;;
30420;SDS011;17218;54.070;10.012;2022-09-12T00:57:24;4.32;;;1.80;;
30420;SDS011;17218;54.070;10.012;2022-09-12T00:59:56;1.88;;;1.77;;
30420;SDS011;17218;54.070;10.012;2022-09-12T01:02:28;2.80;;;1.80;;
30420;SDS011;17218;54.070;10.012;2022-09-12T01:04:55;2.03;;;1.67;;
30420;SDS011;17218;54.070;10.012;2022-09-12T01:07:21;3.03;;;1.83;;
30420;SDS011;17218;54.070;10.012;2022-09-12T01:09:48;2.45;;;2.17;;
30420;SDS011;17218;54.070;10.012;2022-09-12T01:12:14;1.65;;;1.55;;
30420;SDS011;17218;54.070;10.012;2022-09-12T01:14:42;1.73;;;1.60;;
30420;SDS011;17218;54.070;10.012;2022-09-12T01:17:11;1.77;;;1.67;;
30420;SDS011;17218;54.070;10.012;2022-09-12T01:22:54;2.35;;;1.40;;
30420;SDS011;17218;54.070;10.012;2022-09-12T01:25:36;1.88;;;1.77;;
30420;SDS011;17218;54.070;10.012;2022-09-12T01:28:23;2.20;;;1.60;;
30420;SDS011;17218;54.070;10.012;2022-09-12T01:31:06;2.42;;;1.95;;
30420;SDS011;17218;54.070;10.012;2022-09-12T01:36:34;1.63;;;1.42;;
30420;SDS011;17218;54.070;10.012;2022-09-12T01:39:07;3.35;;;2.22;;
30420;SDS011;17218;54.070;10.012;2022-09-12T01:41:43;2.60;;;2.00;;
30420;SDS011;17218;54.070;10.012;2022-09-12T01:44:20;4.93;;;1.60;;
30420;SDS011;17218;54.070;10.012;2022-09-12T01:46:56;2.70;;;1.75;;
30420;SDS011;17218;54.070;10.012;2022-09-12T01:49:28;1.70;;;1.60;;
30420;SDS011;17218;54.070;10.012;2022-09-12T01:52:02;2.75;;;1.80;;
30420;SDS011;17218;54.070;10.012;2022-09-12T01:54:36;2.08;;;1.77;;
30420;SDS011;17218;54.070;10.012;2022-09-12T01:57:09;1.60;;;1.50;;
30420;SDS011;17218;54.070;10.012;2022-09-12T01:59:39;3.65;;;1.70;;
30420;SDS011;17218;54.070;10.012;2022-09-12T02:02:13;1.95;;;1.70;;
30420;SDS011;17218;54.070;10.012;2022-09-12T02:04:43;2.60;;;1.73;;
30420;SDS011;17218;54.070;10.012;2022-09-12T02:07:17;1.70;;;1.60;;
30420;SDS011;17218;54.070;10.012;2022-09-12T02:09:46;2.53;;;1.75;;
30420;SDS011;17218;54.070;10.012;2022-09-12T02:12:19;1.92;;;1.80;;
30420;SDS011;17218;54.070;10.012;2022-09-12T02:14:51;2.45;;;1.77;;
30420;SDS011;17218;54.070;10.012;2022-09-12T02:17:22;1.80;;;1.70;;
30420;SDS011;17218;54.070;10.012;2022-09-12T02:19:50;2.22;;;1.70;;
30420;SDS011;17218;54.070;10.012;2022-09-12T02:22:20;1.65;;;1.55;;
30420;SDS011;17218;54.070;10.012;2022-09-12T02:24:51;3.13;;;1.70;;
30420;SDS011;17218;54.070;10.012;2022-09-12T02:27:21;4.95;;;1.75;;
30420;SDS011;17218;54.070;10.012;2022-09-12T02:29:51;1.85;;;1.40;;
30420;SDS011;17218;54.070;10.012;2022-09-12T02:32:21;3.67;;;2.63;;
30420;SDS011;17218;54.070;10.012;2022-09-12T02:34:55;2.30;;;1.50;;
30420;SDS011;17218;54.070;10.012;2022-09-12T02:37:31;1.67;;;1.58;;
30420;SDS011;17218;54.070;10.012;2022-09-12T02:40:08;2.03;;;1.85;;
30420;SDS011;17218;54.070;10.012;2022-09-12T02:42:35;1.90;;;1.70;;
30420;SDS011;17218;54.070;10.012;2022-09-12T02:45:03;1.92;;;1.60;;
30420;SDS011;17218;54.070;10.012;2022-09-12T02:47:33;2.63;;;1.70;;
30420;SDS011;17218;54.070;10.012;2022-09-12T02:50:04;1.98;;;1.60;;
30420;SDS011;17218;54.070;10.012;2022-09-12T02:52:32;1.58;;;1.48;;
30420;SDS011;17218;54.070;10.012;2022-09-12T02:54:59;1.42;;;1.33;;
30420;SDS011;17218;54.070;10.012;2022-09-12T02:57:28;2.08;;;1.60;;
30420;SDS011;17218;54.070;10.012;2022-09-12T02:59:56;1.85;;;1.75;;
30420;SDS011;17218;54.070;10.012;2022-09-12T03:02:27;1.73;;;1.58;;
30420;SDS011;17218;54.070;10.012;2022-09-12T03:05:09;2.35;;;1.40;;
30420;SDS011;17218;54.070;10.012;2022-09-12T03:07:51;1.60;;;1.50;;
30420;SDS011;17218;54.070;10.012;2022-09-12T03:10:36;1.70;;;1.60;;
30420;SDS011;17218;54.070;10.012;2022-09-12T03:13:14;1.70;;;1.45;;
30420;SDS011;17218;54.070;10.012;2022-09-12T03:15:50;1.88;;;1.60;;
30420;SDS011;17218;54.070;10.012;2022-09-12T03:18:30;1.70;;;1.60;;
30420;SDS011;17218;54.070;10.012;2022-09-12T03:21:08;1.67;;;1.58;;
30420;SDS011;17218;54.070;10.012;2022-09-12T03:23:46;2.05;;;1.60;;
30420;SDS011;17218;54.070;10.012;2022-09-12T03:26:26;2.38;;;1.70;;
30420;SDS011;17218;54.070;10.012;2022-09-12T03:28:57;1.75;;;1.65;;
30420;SDS011;17218;54.070;10.012;2022-09-12T03:31:26;1.80;;;1.60;;
30420;SDS011;17218;54.070;10.012;2022-09-12T03:33:53;2.38;;;1.85;;
30420;SDS011;17218;54.070;10.012;2022-09-12T03:36:22;2.30;;;1.80;;
30420;SDS011;17218;54.070;10.012;2022-09-12T03:38:50;1.60;;;1.50;;
30420;SDS011;17218;54.070;10.012;2022-09-12T03:41:16;3.50;;;1.85;;
30420;SDS011;17218;54.070;10.012;2022-09-12T03:43:43;2.10;;;1.83;;
30420;SDS011;17218;54.070;10.012;2022-09-12T03:46:10;1.60;;;1.50;;
30420;SDS011;17218;54.070;10.012;2022-09-12T03:48:37;2.17;;;2.00;;
30420;SDS011;17218;54.070;10.012;2022-09-12T03:51:05;1.80;;;1.70;;
30420;SDS011;17218;54.070;10.012;2022-09-12T03:53:34;3.05;;;1.60;;
30420;SDS011;17218;54.070;10.012;2022-09-12T03:56:04;3.10;;;1.90;;
30420;SDS011;17218;54.070;10.012;2022-09-12T03:58:31;3.17;;;1.83;;
30420;SDS011;17218;54.070;10.012;2022-09-12T04:00:58;1.73;;;1.42;;
30420;SDS011;17218;54.070;10.012;2022-09-12T04:03:24;1.55;;;1.45;;
30420;SDS011;17218;54.070;10.012;2022-09-12T04:05:50;1.92;;;1.50;;
30420;SDS011;17218;54.070;10.012;2022-09-12T04:08:17;3.63;;;1.60;;
30420;SDS011;17218;54.070;10.012;2022-09-12T04:10:45;1.88;;;1.77;;
30420;SDS011;17218;54.070;10.012;2022-09-12T04:13:11;2.20;;;1.30;;
30420;SDS011;17218;54.070;10.012;2022-09-12T04:15:38;1.70;;;1.60;;
30420;SDS011;17218;54.070;10.012;2022-09-12T04:18:04;3.80;;;1.60;;
30420;SDS011;17218;54.070;10.012;2022-09-12T04:20:31;1.67;;;1.58;;
30420;SDS011;17218;54.070;10.012;2022-09-12T04:22:57;2.00;;;1.80;;
30420;SDS011;17218;54.070;10.012;2022-09-12T04:25:24;1.63;;;1.52;;
30420;SDS011;17218;54.070;10.012;2022-09-12T04:27:53;1.73;;;1.50;;
30420;SDS011;17218;54.070;10.012;2022-09-12T04:30:20;2.10;;;1.90;;
30420;SDS011;17218;54.070;10.012;2022-09-12T04:32:46;1.60;;;1.50;;
30420;SDS011;17218;54.070;10.012;2022-09-12T04:35:13;1.70;;;1.60;;
30420;SDS011;17218;54.070;10.012;2022-09-12T04:37:39;2.60;;;1.85;;
30420;SDS011;17218;54.070;10.012;2022-09-12T04:40:06;2.90;;;2.10;;
30420;SDS011;17218;54.070;10.012;2022-09-12T04:42:33;3.10;;;1.65;;
30420;SDS011;17218;54.070;10.012;2022-09-12T04:45:01;1.98;;;1.88;;
30420;SDS011;17218;54.070;10.012;2022-09-12T04:47:30;2.28;;;2.08;;
30420;SDS011;17218;54.070;10.012;2022-09-12T04:49:56;2.53;;;1.90;;
30420;SDS011;17218;54.070;10.012;2022-09-12T04:52:23;2.60;;;2.40;;
30420;SDS011;17218;54.070;10.012;2022-09-12T04:54:49;1.95;;;1.85;;
30420;SDS011;17218;54.070;10.012;2022-09-12T04:57:17;3.35;;;2.50;;
30420;SDS011;17218;54.070;10.012;2022-09-12T04:59:43;2.80;;;2.60;;
30420;SDS011;17218;54.070;10.012;2022-09-12T05:02:11;2.50;;;2.30;;
30420;SDS011;17218;54.070;10.012;2022-09-12T05:04:38;2.60;;;2.40;;
30420;SDS011;17218;54.070;10.012;2022-09-12T05:07:04;3.65;;;2.90;;
30420;SDS011;17218;54.070;10.012;2022-09-12T05:09:31;3.10;;;2.35;;
30420;SDS011;17218;54.070;10.012;2022-09-12T05:11:57;3.22;;;2.92;;
30420;SDS011;17218;54.070;10.012;2022-09-12T05:14:25;3.72;;;3.03;;
30420;SDS011;17218;54.070;10.012;2022-09-12T05:16:51;3.35;;;2.95;;
30420;SDS011;17218;54.070;10.012;2022-09-12T05:19:19;3.67;;;2.60;;
30420;SDS011;17218;54.070;10.012;2022-09-12T05:21:45;3.75;;;3.25;;
30420;SDS011;17218;54.070;10.012;2022-09-12T05:24:12;4.20;;;2.70;;
30420;SDS011;17218;54.070;10.012;2022-09-12T05:26:38;3.00;;;2.80;;
30420;SDS011;17218;54.070;10.012;2022-09-12T05:29:05;3.92;;;2.60;;
30420;SDS011;17218;54.070;10.012;2022-09-12T05:31:31;2.85;;;2.45;;
30420;SDS011;17218;54.070;10.012;2022-09-12T05:33:58;2.60;;;2.40;;
30420;SDS011;17218;54.070;10.012;2022-09-12T05:36:27;5.63;;;2.72;;
30420;SDS011;17218;54.070;10.012;2022-09-12T05:38:54;3.95;;;2.63;;
30420;SDS011;17218;54.070;10.012;2022-09-12T05:41:22;4.55;;;3.20;;
30420;SDS011;17218;54.070;10.012;2022-09-12T05:43:50;4.45;;;3.35;;
30420;SDS011;17218;54.070;10.012;2022-09-12T05:46:19;3.78;;;3.42;;
30420;SDS011;17218;54.070;10.012;2022-09-12T05:48:47;5.45;;;3.75;;
30420;SDS011;17218;54.070;10.012;2022-09-12T05:51:15;3.92;;;3.53;;
30420;SDS011;17218;54.070;10.012;2022-09-12T05:53:46;4.05;;;3.63;;
30420;SDS011;17218;54.070;10.012;2022-09-12T05:56:15;4.78;;;4.38;;
30420;SDS011;17218;54.070;10.012;2022-09-12T05:58:44;4.72;;;4.32;;
30420;SDS011;17218;54.070;10.012;2022-09-12T06:01:12;4.90;;;4.40;;
30420;SDS011;17218;54.070;10.012;2022-09-12T06:03:41;5.75;;;5.25;;
30420;SDS011;17218;54.070;10.012;2022-09-12T06:06:09;6.10;;;5.45;;
30420;SDS011;17218;54.070;10.012;2022-09-12T06:08:38;5.80;;;5.20;;
30420;SDS011;17218;54.070;10.012;2022-09-12T06:11:07;6.72;;;5.18;;
30420;SDS011;17218;54.070;10.012;2022-09-12T06:13:36;6.60;;;5.43;;
30420;SDS011;17218;54.070;10.012;2022-09-12T06:16:05;5.95;;;5.45;;
30420;SDS011;17218;54.070;10.012;2022-09-12T06:18:33;6.05;;;5.45;;
30420;SDS011;17218;54.070;10.012;2022-09-12T06:21:01;5.97;;;5.38;;
30420;SDS011;17218;54.070;10.012;2022-09-12T06:23:28;7.75;;;5.90;;
30420;SDS011;17218;54.070;10.012;2022-09-12T06:25:55;5.95;;;5.18;;
30420;SDS011;17218;54.070;10.012;2022-09-12T06:28:22;6.97;;;6.28;;
30420;SDS011;17218;54.070;10.012;2022-09-12T06:30:49;6.63;;;6.03;;
30420;SDS011;17218;54.070;10.012;2022-09-12T06:33:15;7.75;;;6.00;;
30420;SDS011;17218;54.070;10.012;2022-09-12T06:35:42;6.82;;;6.18;;
30420;SDS011;17218;54.070;10.012;2022-09-12T06:38:09;6.75;;;6.18;;
30420;SDS011;17218;54.070;10.012;2022-09-12T06:40:39;6.43;;;5.85;;
30420;SDS011;17218;54.070;10.012;2022-09-12T06:43:07;7.03;;;6.38;;
30420;SDS011;17218;54.070;10.012;2022-09-12T06:45:35;6.45;;;5.75;;
30420;SDS011;17218;54.070;10.012;2022-09-12T06:48:02;7.95;;;5.85;;
30420;SDS011;17218;54.070;10.012;2022-09-12T06:50:29;6.93;;;6.32;;
30420;SDS011;17218;54.070;10.012;2022-09-12T06:52:56;6.00;;;5.50;;
30420;SDS011;17218;54.070;10.012;2022-09-12T06:55:23;7.13;;;6.53;;
30420;SDS011;17218;54.070;10.012;2022-09-12T06:57:49;5.78;;;5.28;;
30420;SDS011;17218;54.070;10.012;2022-09-12T07:00:16;6.45;;;5.47;;
30420;SDS011;17218;54.070;10.012;2022-09-12T07:02:44;6.63;;;5.30;;
30420;SDS011;17218;54.070;10.012;2022-09-12T07:05:10;6.32;;;4.95;;
30420;SDS011;17218;54.070;10.012;2022-09-12T07:07:37;5.60;;;5.10;;
30420;SDS011;17218;54.070;10.012;2022-09-12T07:10:04;5.47;;;4.75;;
30420;SDS011;17218;54.070;10.012;2022-09-12T07:12:31;5.90;;;5.20;;
30420;SDS011;17218;54.070;10.012;2022-09-12T07:14:58;6.15;;;5.55;;
30420;SDS011;17218;54.070;10.012;2022-09-12T07:17:25;5.65;;;5.10;;
30420;SDS011;17218;54.070;10.012;2022-09-12T07:19:52;5.55;;;5.00;;
30420;SDS011;17218;54.070;10.012;2022-09-12T07:22:19;4.70;;;4.30;;
30420;SDS011;17218;54.070;10.012;2022-09-12T07:24:45;4.95;;;3.80;;
30420;SDS011;17218;54.070;10.012;2022-09-12T07:27:12;4.40;;;4.00;;
30420;SDS011;17218;54.070;10.012;2022-09-12T07:29:38;4.35;;;4.00;;
30420;SDS011;17218;54.070;10.012;2022-09-12T07:32:05;4.75;;;3.95;;
30420;SDS011;17218;54.070;10.012;2022-09-12T07:34:32;3.97;;;3.67;;
30420;SDS011;17218;54.070;10.012;2022-09-12T07:37:00;3.25;;;2.95;;
30420;SDS011;17218;54.070;10.012;2022-09-12T07:39:27;4.45;;;3.10;;
30420;SDS011;17218;54.070;10.012;2022-09-12T07:41:53;3.00;;;2.78;;
30420;SDS011;17218;54.070;10.012;2022-09-12T07:44:20;2.60;;;2.40;;
30420;SDS011;17218;54.070;10.012;2022-09-12T07:46:47;2.85;;;2.22;;
30420;SDS011;17218;54.070;10.012;2022-09-12T07:49:14;2.47;;;2.28;;
30420;SDS011;17218;54.070;10.012;2022-09-12T07:51:41;2.35;;;2.15;;
30420;SDS011;17218;54.070;10.012;2022-09-12T07:54:09;2.95;;;2.00;;
30420;SDS011;17218;54.070;10.012;2022-09-12T07:56:35;2.17;;;1.85;;
30420;SDS011;17218;54.070;10.012;2022-09-12T07:59:02;2.17;;;1.95;;
30420;SDS011;17218;54.070;10.012;2022-09-12T08:01:29;1.70;;;1.60;;
30420;SDS011;17218;54.070;10.012;2022-09-12T08:03:56;2.85;;;1.63;;
30420;SDS011;17218;54.070;10.012;2022-09-12T08:06:24;2.15;;;1.50;;
30420;SDS011;17218;54.070;10.012;2022-09-12T08:08:53;1.65;;;1.52;;
30420;SDS011;17218;54.070;10.012;2022-09-12T08:11:22;3.22;;;2.15;;
30420;SDS011;17218;54.070;10.012;2022-09-12T08:13:50;3.22;;;1.67;;
30420;SDS011;17218;54.070;10.012;2022-09-12T08:16:17;4.28;;;1.60;;
30420;SDS011;17218;54.070;10.012;2022-09-12T08:18:45;2.80;;;1.30;;
30420;SDS011;17218;54.070;10.012;2022-09-12T08:21:13;1.55;;;1.40;;
30420;SDS011;17218;54.070;10.012;2022-09-12T08:23:41;1.77;;;1.52;;
30420;SDS011;17218;54.070;10.012;2022-09-12T08:26:08;1.40;;;1.30;;
30420;SDS011;17218;54.070;10.012;2022-09-12T08:28:37;2.35;;;1.40;;
30420;SDS011;17218;54.070;10.012;2022-09-12T08:31:05;1.88;;;1.40;;
30420;SDS011;17218;54.070;10.012;2022-09-12T08:33:33;1.42;;;1.33;;
30420;SDS011;17218;54.070;10.012;2022-09-12T08:36:03;1.73;;;1.40;;
30420;SDS011;17218;54.070;10.012;2022-09-12T08:38:31;2.08;;;1.48;;
30420;SDS011;17218;54.070;10.012;2022-09-12T08:40:59;2.30;;;1.35;;
30420;SDS011;17218;54.070;10.012;2022-09-12T08:43:34;1.63;;;1.30;;
30420;SDS011;17218;54.070;10.012;2022-09-12T08:46:15;1.80;;;1.38;;
30420;SDS011;17218;54.070;10.012;2022-09-12T08:48:47;2.55;;;1.60;;
30420;SDS011;17218;54.070;10.012;2022-09-12T08:51:15;2.28;;;1.20;;
30420;SDS011;17218;54.070;10.012;2022-09-12T08:53:44;2.60;;;1.70;;
30420;SDS011;17218;54.070;10.012;2022-09-12T08:56:14;1.38;;;1.27;;
30420;SDS011;17218;54.070;10.012;2022-09-12T08:58:42;1.98;;;1.77;;
30420;SDS011;17218;54.070;10.012;2022-09-12T09:01:13;2.35;;;1.60;;
30420;SDS011;17218;54.070;10.012;2022-09-12T09:06:51;2.63;;;1.70;;
30420;SDS011;17218;54.070;10.012;2022-09-12T09:09:28;1.77;;;1.50;;
30420;SDS011;17218;54.070;10.012;2022-09-12T09:12:09;2.25;;;1.60;;
30420;SDS011;17218;54.070;10.012;2022-09-12T09:14:48;1.80;;;1.70;;
30420;SDS011;17218;54.070;10.012;2022-09-12T09:17:28;3.00;;;1.55;;
30420;SDS011;17218;54.070;10.012;2022-09-12T09:20:01;1.77;;;1.67;;
30420;SDS011;17218;54.070;10.012;2022-09-12T09:22:37;3.42;;;1.83;;
30420;SDS011;17218;54.070;10.012;2022-09-12T09:25:10;1.92;;;1.63;;
30420;SDS011;17218;54.070;10.012;2022-09-12T09:27:42;2.65;;;1.90;;
30420;SDS011;17218;54.070;10.012;2022-09-12T09:30:16;2.65;;;1.85;;
30420;SDS011;17218;54.070;10.012;2022-09-12T09:32:46;2.30;;;2.10;;
30420;SDS011;17218;54.070;10.012;2022-09-12T09:35:17;2.47;;;1.65;;
30420;SDS011;17218;54.070;10.012;2022-09-12T09:37:54;1.75;;;1.65;;
30420;SDS011;17218;54.070;10.012;2022-09-12T09:40:31;1.67;;;1.58;;
30420;SDS011;17218;54.070;10.012;2022-09-12T09:43:08;1.70;;;1.60;;
30420;SDS011;17218;54.070;10.012;2022-09-12T09:45:45;1.85;;;1.17;;
30420;SDS011;17218;54.070;10.012;2022-09-12T09:48:14;2.83;;;1.63;;
30420;SDS011;17218;54.070;10.012;2022-09-12T09:50:43;1.40;;;1.30;;
30420;SDS011;17218;54.070;10.012;2022-09-12T09:53:15;1.90;;;1.80;;
30420;SDS011;17218;54.070;10.012;2022-09-12T09:55:51;3.75;;;1.90;;
30420;SDS011;17218;54.070;10.012;2022-09-12T09:58:27;2.30;;;1.70;;
30420;SDS011;17218;54.070;10.012;2022-09-12T10:00:58;2.20;;;1.73;;
30420;SDS011;17218;54.070;10.012;2022-09-12T10:03:29;2.75;;;2.13;;
30420;SDS011;17218;54.070;10.012;2022-09-12T10:05:58;2.47;;;2.00;;
30420;SDS011;17218;54.070;10.012;2022-09-12T10:08:27;2.33;;;2.13;;
30420;SDS011;17218;54.070;10.012;2022-09-12T10:10:56;2.20;;;2.00;;
30420;SDS011;17218;54.070;10.012;2022-09-12T10:13:27;1.58;;;1.40;;
30420;SDS011;17218;54.070;10.012;2022-09-12T10:16:02;1.83;;;1.50;;
30420;SDS011;17218;54.070;10.012;2022-09-12T10:18:35;4.90;;;2.10;;
30420;SDS011;17218;54.070;10.012;2022-09-12T10:21:14;2.30;;;2.10;;
30420;SDS011;17218;54.070;10.012;2022-09-12T10:23:57;1.73;;;1.63;;
30420;SDS011;17218;54.070;10.012;2022-09-12T10:26:26;2.30;;;2.10;;
30420;SDS011;17218;54.070;10.012;2022-09-12T10:29:01;3.72;;;2.05;;
30420;SDS011;17218;54.070;10.012;2022-09-12T10:31:34;3.05;;;1.92;;
30420;SDS011;17218;54.070;10.012;2022-09-12T10:34:13;2.08;;;1.48;;
30420;SDS011;17218;54.070;10.012;2022-09-12T10:36:46;2.15;;;2.03;;
30420;SDS011;17218;54.070;10.012;2022-09-12T10:39:16;3.70;;;1.98;;
30420;SDS011;17218;54.070;10.012;2022-09-12T10:41:44;2.28;;;1.98;;
30420;SDS011;17218;54.070;10.012;2022-09-12T10:44:13;2.58;;;2.38;;
30420;SDS011;17218;54.070;10.012;2022-09-12T10:46:42;3.53;;;2.50;;
30420;SDS011;17218;54.070;10.012;2022-09-12T10:51:56;4.30;;;2.40;;
30420;SDS011;17218;54.070;10.012;2022-09-12T10:54:25;3.20;;;2.22;;
30420;SDS011;17218;54.070;10.012;2022-09-12T10:57:10;4.72;;;2.22;;
30420;SDS011;17218;54.070;10.012;2022-09-12T11:00:02;2.15;;;1.95;;
30420;SDS011;17218;54.070;10.012;2022-09-12T11:02:42;2.38;;;1.50;;
30420;SDS011;17218;54.070;10.012;2022-09-12T11:05:19;2.70;;;1.95;;
30420;SDS011;17218;54.070;10.012;2022-09-12T11:08:01;2.58;;;1.58;;
30420;SDS011;17218;54.070;10.012;2022-09-12T11:10:38;1.85;;;1.75;;
30420;SDS011;17218;54.070;10.012;2022-09-12T11:13:13;2.53;;;1.48;;
30420;SDS011;17218;54.070;10.012;2022-09-12T11:15:53;3.05;;;1.50;;
30420;SDS011;17218;54.070;10.012;2022-09-12T11:18:35;1.90;;;1.52;;
30420;SDS011;17218;54.070;10.012;2022-09-12T11:21:18;3.10;;;2.00;;
30420;SDS011;17218;54.070;10.012;2022-09-12T11:24:08;2.60;;;1.50;;
30420;SDS011;17218;54.070;10.012;2022-09-12T11:26:49;2.20;;;1.52;;
30420;SDS011;17218;54.070;10.012;2022-09-12T11:29:46;1.20;;;1.10;;
30420;SDS011;17218;54.070;10.012;2022-09-12T11:32:23;2.75;;;1.50;;
30420;SDS011;17218;54.070;10.012;2022-09-12T11:35:15;1.85;;;1.25;;
30420;SDS011;17218;54.070;10.012;2022-09-12T11:37:52;1.65;;;1.15;;
30420;SDS011;17218;54.070;10.012;2022-09-12T11:40:41;1.30;;;1.20;;
30420;SDS011;17218;54.070;10.012;2022-09-12T11:43:18;2.15;;;1.48;;
30420;SDS011;17218;54.070;10.012;2022-09-12T11:45:49;1.20;;;1.08;;
30420;SDS011;17218;54.070;10.012;2022-09-12T11:48:28;2.85;;;1.50;;
30420;SDS011;17218;54.070;10.012;2022-09-12T11:51:05;2.38;;;1.23;;
30420;SDS011;17218;54.070;10.012;2022-09-12T11:53:39;1.70;;;1.52;;
30420;SDS011;17218;54.070;10.012;2022-09-12T11:56:10;1.52;;;1.10;;
30420;SDS011;17218;54.070;10.012;2022-09-12T11:58:42;1.85;;;1.50;;
30420;SDS011;17218;54.070;10.012;2022-09-12T12:01:11;1.25;;;1.15;;
30420;SDS011;17218;54.070;10.012;2022-09-12T12:03:43;1.17;;;1.02;;
30420;SDS011;17218;54.070;10.012;2022-09-12T12:06:14;2.10;;;1.60;;
30420;SDS011;17218;54.070;10.012;2022-09-12T12:08:44;1.95;;;1.55;;
30420;SDS011;17218;54.070;10.012;2022-09-12T12:11:12;1.70;;;1.50;;
30420;SDS011;17218;54.070;10.012;2022-09-12T12:13:43;3.20;;;1.55;;
30420;SDS011;17218;54.070;10.012;2022-09-12T12:16:17;1.70;;;1.40;;
30420;SDS011;17218;54.070;10.012;2022-09-12T12:18:52;3.50;;;1.65;;
30420;SDS011;17218;54.070;10.012;2022-09-12T12:21:34;2.15;;;1.63;;
30420;SDS011;17218;54.070;10.012;2022-09-12T12:24:11;3.58;;;1.48;;
30420;SDS011;17218;54.070;10.012;2022-09-12T12:26:41;2.35;;;1.40;;
30420;SDS011;17218;54.070;10.012;2022-09-12T12:29:38;2.08;;;1.40;;
30420;SDS011;17218;54.070;10.012;2022-09-12T12:32:20;2.42;;;1.70;;
30420;SDS011;17218;54.070;10.012;2022-09-12T12:34:48;1.67;;;1.50;;
30420;SDS011;17218;54.070;10.012;2022-09-12T12:40:20;2.03;;;1.45;;
30420;SDS011;17218;54.070;10.012;2022-09-12T12:42:59;6.72;;;1.67;;
30420;SDS011;17218;54.070;10.012;2022-09-12T12:48:41;3.22;;;1.45;;
30420;SDS011;17218;54.070;10.012;2022-09-12T12:51:23;1.50;;;1.40;;
30420;SDS011;17218;54.070;10.012;2022-09-12T12:53:56;1.42;;;1.27;;
30420;SDS011;17218;54.070;10.012;2022-09-12T12:56:29;1.77;;;1.20;;
30420;SDS011;17218;54.070;10.012;2022-09-12T12:59:00;1.33;;;1.23;;
30420;SDS011;17218;54.070;10.012;2022-09-12T13:01:30;2.65;;;1.20;;
30420;SDS011;17218;54.070;10.012;2022-09-12T13:04:04;1.55;;;1.45;;
30420;SDS011;17218;54.070;10.012;2022-09-12T13:06:39;1.83;;;1.30;;
30420;SDS011;17218;54.070;10.012;2022-09-12T13:09:16;2.92;;;1.60;;
30420;SDS011;17218;54.070;10.012;2022-09-12T13:11:52;2.17;;;1.33;;
30420;SDS011;17218;54.070;10.012;2022-09-12T13:17:22;2.03;;;1.10;;
30420;SDS011;17218;54.070;10.012;2022-09-12T13:19:53;1.13;;;1.02;;
30420;SDS011;17218;54.070;10.012;2022-09-12T13:22:37;2.25;;;1.00;;
30420;SDS011;17218;54.070;10.012;2022-09-12T13:28:03;2.45;;;1.30;;
30420;SDS011;17218;54.070;10.012;2022-09-12T13:30:33;1.42;;;1.30;;
30420;SDS011;17218;54.070;10.012;2022-09-12T13:33:08;1.75;;;1.00;;
30420;SDS011;17218;54.070;10.012;2022-09-12T13:35:45;3.08;;;1.50;;
30420;SDS011;17218;54.070;10.012;2022-09-12T13:38:25;2.25;;;1.42;;
30420;SDS011;17218;54.070;10.012;2022-09-12T13:41:11;3.92;;;1.35;;
30420;SDS011;17218;54.070;10.012;2022-09-12T13:43:48;5.72;;;1.15;;
30420;SDS011;17218;54.070;10.012;2022-09-12T13:46:16;2.38;;;1.33;;
30420;SDS011;17218;54.070;10.012;2022-09-12T13:48:47;2.50;;;1.25;;
30420;SDS011;17218;54.070;10.012;2022-09-12T13:51:18;1.30;;;1.20;;
30420;SDS011;17218;54.070;10.012;2022-09-12T13:53:48;1.50;;;1.40;;
30420;SDS011;17218;54.070;10.012;2022-09-12T13:56:19;2.08;;;1.50;;
30420;SDS011;17218;54.070;10.012;2022-09-12T13:58:52;2.85;;;1.10;;
30420;SDS011;17218;54.070;10.012;2022-09-12T14:01:20;1.80;;;1.42;;
30420;SDS011;17218;54.070;10.012;2022-09-12T14:03:48;1.88;;;1.40;;
30420;SDS011;17218;54.070;10.012;2022-09-12T14:06:44;2.47;;;1.10;;
30420;SDS011;17218;54.070;10.012;2022-09-12T14:09:12;1.77;;;1.23;;
30420;SDS011;17218;54.070;10.012;2022-09-12T14:11:41;2.22;;;1.15;;
30420;SDS011;17218;54.070;10.012;2022-09-12T14:14:13;2.05;;;0.80;;
30420;SDS011;17218;54.070;10.012;2022-09-12T14:16:46;2.00;;;1.20;;
30420;SDS011;17218;54.070;10.012;2022-09-12T14:19:13;4.22;;;1.20;;
30420;SDS011;17218;54.070;10.012;2022-09-12T14:21:41;1.73;;;1.13;;
30420;SDS011;17218;54.070;10.012;2022-09-12T14:24:08;1.23;;;0.90;;
30420;SDS011;17218;54.070;10.012;2022-09-12T14:26:37;1.58;;;1.00;;
30420;SDS011;17218;54.070;10.012;2022-09-12T14:29:07;1.40;;;1.30;;
30420;SDS011;17218;54.070;10.012;2022-09-12T14:31:37;0.85;;;0.77;;
30420;SDS011;17218;54.070;10.012;2022-09-12T14:34:09;1.63;;;1.00;;
30420;SDS011;17218;54.070;10.012;2022-09-12T14:36:39;1.38;;;1.10;;
30420;SDS011;17218;54.070;10.012;2022-09-12T14:39:14;1.20;;;1.02;;
30420;SDS011;17218;54.070;10.012;2022-09-12T14:41:44;1.95;;;1.30;;
30420;SDS011;17218;54.070;10.012;2022-09-12T14:44:15;1.90;;;1.13;;
30420;SDS011;17218;54.070;10.012;2022-09-12T14:46:44;4.97;;;1.50;;
30420;SDS011;17218;54.070;10.012;2022-09-12T14:49:13;1.67;;;1.50;;
30420;SDS011;17218;54.070;10.012;2022-09-12T14:51:44;1.80;;;1.30;;
30420;SDS011;17218;54.070;10.012;2022-09-12T14:57:29;0.93;;;0.93;;
30420;SDS011;17218;54.070;10.012;2022-09-12T15:00:17;1.40;;;1.25;;
30420;SDS011;17218;54.070;10.012;2022-09-12T15:02:47;1.70;;;1.33;;
30420;SDS011;17218;54.070;10.012;2022-09-12T15:05:16;1.20;;;1.10;;
30420;SDS011;17218;54.070;10.012;2022-09-12T15:07:50;3.67;;;1.40;;
30420;SDS011;17218;54.070;10.012;2022-09-12T15:10:19;1.55;;;1.15;;
30420;SDS011;17218;54.070;10.012;2022-09-12T15:12:49;1.52;;;0.93;;
30420;SDS011;17218;54.070;10.012;2022-09-12T15:15:18;1.98;;;1.38;;
30420;SDS011;17218;54.070;10.012;2022-09-12T15:17:46;1.52;;;1.38;;
30420;SDS011;17218;54.070;10.012;2022-09-12T15:20:12;1.98;;;1.30;;
30420;SDS011;17218;54.070;10.012;2022-09-12T15:22:39;1.83;;;1.13;;